Coral, Michigan
Current Conditions -  °F | °C
As of 12:54 AM on Tuesday 27 Jan 2015 (Local Time) from KRQB Reporting Station
Overcast Overcast  
Wind Chill: 18°   Ceiling: 6000
Heat Index: 18°   Visibility: 10mi
Dew Point: 11°   Wind: 3mph
Humidity: 73%   Direction: 70°ENE
Pressure: 29.97"   Gusts: NA
Location:  43.36°N, 85.4°W
Report Text: KRQB 270554Z AUTO 07003KT 10SM OVC060 M08/M12 A2997 RMK AO2 T10771118 11072 21083 410521185
Loading
Personal Weather Stations






























Interactive Weather Map New forecast layout! Learn more

10-Day Weather Forecast

Advertisements
Track Severe Weather on mobile